sensor_id;sensor_type;location;lat;lon;timestamp;P1;durP1;ratioP1;P2;durP2;ratioP2
24429;SDS011;12613;47.408;8.412;2023-07-28T00:01:35;4.40;;;3.55;;
24429;SDS011;12613;47.408;8.412;2023-07-28T00:04:01;4.70;;;3.53;;
24429;SDS011;12613;47.408;8.412;2023-07-28T00:06:29;5.97;;;4.03;;
24429;SDS011;12613;47.408;8.412;2023-07-28T00:08:54;5.00;;;3.58;;
24429;SDS011;12613;47.408;8.412;2023-07-28T00:11:20;9.32;;;3.40;;
24429;SDS011;12613;47.408;8.412;2023-07-28T00:13:46;4.28;;;3.38;;
24429;SDS011;12613;47.408;8.412;2023-07-28T00:16:11;6.63;;;3.38;;
24429;SDS011;12613;47.408;8.412;2023-07-28T00:18:37;6.28;;;3.70;;
24429;SDS011;12613;47.408;8.412;2023-07-28T00:21:04;3.88;;;3.33;;
24429;SDS011;12613;47.408;8.412;2023-07-28T00:23:30;4.90;;;3.95;;
24429;SDS011;12613;47.408;8.412;2023-07-28T00:25:56;6.57;;;3.45;;
24429;SDS011;12613;47.408;8.412;2023-07-28T00:28:21;4.55;;;3.58;;
24429;SDS011;12613;47.408;8.412;2023-07-28T00:30:50;4.30;;;2.90;;
24429;SDS011;12613;47.408;8.412;2023-07-28T00:33:16;5.55;;;3.15;;
24429;SDS011;12613;47.408;8.412;2023-07-28T00:35:42;4.38;;;3.35;;
24429;SDS011;12613;47.408;8.412;2023-07-28T00:38:08;3.50;;;3.10;;
24429;SDS011;12613;47.408;8.412;2023-07-28T00:40:34;4.03;;;2.72;;
24429;SDS011;12613;47.408;8.412;2023-07-28T00:43:01;5.43;;;3.40;;
24429;SDS011;12613;47.408;8.412;2023-07-28T00:45:27;4.43;;;2.97;;
24429;SDS011;12613;47.408;8.412;2023-07-28T00:47:53;3.85;;;3.08;;
24429;SDS011;12613;47.408;8.412;2023-07-28T00:50:19;3.80;;;2.85;;
24429;SDS011;12613;47.408;8.412;2023-07-28T00:52:45;3.90;;;3.50;;
24429;SDS011;12613;47.408;8.412;2023-07-28T00:55:11;7.47;;;3.05;;
24429;SDS011;12613;47.408;8.412;2023-07-28T00:57:37;3.90;;;3.25;;
24429;SDS011;12613;47.408;8.412;2023-07-28T01:00:04;4.22;;;3.35;;
24429;SDS011;12613;47.408;8.412;2023-07-28T01:02:30;5.15;;;3.30;;
24429;SDS011;12613;47.408;8.412;2023-07-28T01:04:56;6.25;;;4.05;;
24429;SDS011;12613;47.408;8.412;2023-07-28T01:10:21;6.40;;;3.85;;
24429;SDS011;12613;47.408;8.412;2023-07-28T01:12:51;6.50;;;3.60;;
24429;SDS011;12613;47.408;8.412;2023-07-28T01:15:16;5.65;;;3.30;;
24429;SDS011;12613;47.408;8.412;2023-07-28T01:17:42;4.35;;;3.35;;
24429;SDS011;12613;47.408;8.412;2023-07-28T01:20:08;6.03;;;3.20;;
24429;SDS011;12613;47.408;8.412;2023-07-28T01:28:01;5.03;;;3.63;;
24429;SDS011;12613;47.408;8.412;2023-07-28T01:30:28;6.32;;;3.13;;
24429;SDS011;12613;47.408;8.412;2023-07-28T01:32:55;3.85;;;3.13;;
24429;SDS011;12613;47.408;8.412;2023-07-28T01:35:21;3.85;;;3.15;;
24429;SDS011;12613;47.408;8.412;2023-07-28T01:37:47;5.35;;;3.22;;
24429;SDS011;12613;47.408;8.412;2023-07-28T01:40:18;4.55;;;3.53;;
24429;SDS011;12613;47.408;8.412;2023-07-28T01:42:44;4.85;;;3.45;;
24429;SDS011;12613;47.408;8.412;2023-07-28T01:45:10;4.35;;;3.15;;
24429;SDS011;12613;47.408;8.412;2023-07-28T01:47:36;4.72;;;3.50;;
24429;SDS011;12613;47.408;8.412;2023-07-28T01:50:02;6.35;;;3.53;;
24429;SDS011;12613;47.408;8.412;2023-07-28T01:52:27;4.70;;;4.03;;
24429;SDS011;12613;47.408;8.412;2023-07-28T01:54:53;5.20;;;3.25;;
24429;SDS011;12613;47.408;8.412;2023-07-28T01:57:19;5.45;;;3.45;;
24429;SDS011;12613;47.408;8.412;2023-07-28T01:59:44;5.57;;;3.83;;
24429;SDS011;12613;47.408;8.412;2023-07-28T02:02:10;4.70;;;3.42;;
24429;SDS011;12613;47.408;8.412;2023-07-28T02:04:35;3.35;;;3.05;;
24429;SDS011;12613;47.408;8.412;2023-07-28T02:07:01;3.92;;;3.53;;
24429;SDS011;12613;47.408;8.412;2023-07-28T02:09:27;6.10;;;3.30;;
24429;SDS011;12613;47.408;8.412;2023-07-28T02:11:52;5.55;;;3.75;;
24429;SDS011;12613;47.408;8.412;2023-07-28T02:14:18;6.90;;;4.05;;
24429;SDS011;12613;47.408;8.412;2023-07-28T02:16:44;5.07;;;3.47;;
24429;SDS011;12613;47.408;8.412;2023-07-28T02:19:09;5.28;;;3.30;;
24429;SDS011;12613;47.408;8.412;2023-07-28T02:21:35;6.13;;;3.40;;
24429;SDS011;12613;47.408;8.412;2023-07-28T02:24:01;7.65;;;3.33;;
24429;SDS011;12613;47.408;8.412;2023-07-28T02:26:26;4.05;;;3.65;;
24429;SDS011;12613;47.408;8.412;2023-07-28T02:28:52;5.10;;;3.72;;
24429;SDS011;12613;47.408;8.412;2023-07-28T02:31:18;6.53;;;4.32;;
24429;SDS011;12613;47.408;8.412;2023-07-28T02:33:43;4.72;;;3.38;;
24429;SDS011;12613;47.408;8.412;2023-07-28T02:36:09;7.50;;;3.55;;
24429;SDS011;12613;47.408;8.412;2023-07-28T02:38:35;6.32;;;3.53;;
24429;SDS011;12613;47.408;8.412;2023-07-28T02:41:00;6.22;;;3.65;;
24429;SDS011;12613;47.408;8.412;2023-07-28T02:43:28;6.07;;;3.20;;
24429;SDS011;12613;47.408;8.412;2023-07-28T02:45:55;5.57;;;3.72;;
24429;SDS011;12613;47.408;8.412;2023-07-28T02:48:21;6.22;;;3.80;;
24429;SDS011;12613;47.408;8.412;2023-07-28T02:50:48;6.70;;;4.10;;
24429;SDS011;12613;47.408;8.412;2023-07-28T02:53:17;4.57;;;3.65;;
24429;SDS011;12613;47.408;8.412;2023-07-28T02:55:44;6.88;;;4.10;;
24429;SDS011;12613;47.408;8.412;2023-07-28T02:58:10;33.17;;;24.23;;
24429;SDS011;12613;47.408;8.412;2023-07-28T03:00:40;28.60;;;19.77;;
24429;SDS011;12613;47.408;8.412;2023-07-28T03:03:09;11.45;;;8.10;;
24429;SDS011;12613;47.408;8.412;2023-07-28T03:05:36;5.43;;;4.63;;
24429;SDS011;12613;47.408;8.412;2023-07-28T03:08:02;5.40;;;4.03;;
24429;SDS011;12613;47.408;8.412;2023-07-28T03:10:28;10.10;;;4.30;;
24429;SDS011;12613;47.408;8.412;2023-07-28T03:12:54;7.97;;;3.95;;
24429;SDS011;12613;47.408;8.412;2023-07-28T03:15:21;6.50;;;3.90;;
24429;SDS011;12613;47.408;8.412;2023-07-28T03:17:48;6.32;;;3.88;;
24429;SDS011;12613;47.408;8.412;2023-07-28T03:20:13;5.63;;;3.88;;
24429;SDS011;12613;47.408;8.412;2023-07-28T03:22:39;8.23;;;3.67;;
24429;SDS011;12613;47.408;8.412;2023-07-28T03:25:05;5.40;;;3.90;;
24429;SDS011;12613;47.408;8.412;2023-07-28T03:27:31;5.40;;;3.67;;
24429;SDS011;12613;47.408;8.412;2023-07-28T03:29:56;6.32;;;3.92;;
24429;SDS011;12613;47.408;8.412;2023-07-28T03:32:22;7.72;;;4.05;;
24429;SDS011;12613;47.408;8.412;2023-07-28T03:34:48;6.90;;;3.97;;
24429;SDS011;12613;47.408;8.412;2023-07-28T03:37:13;6.45;;;4.15;;
24429;SDS011;12613;47.408;8.412;2023-07-28T03:39:39;9.32;;;7.15;;
24429;SDS011;12613;47.408;8.412;2023-07-28T03:42:05;24.67;;;19.50;;
24429;SDS011;12613;47.408;8.412;2023-07-28T03:44:31;10.65;;;6.45;;
24429;SDS011;12613;47.408;8.412;2023-07-28T03:46:57;5.40;;;4.85;;
24429;SDS011;12613;47.408;8.412;2023-07-28T03:49:22;9.77;;;6.07;;
24429;SDS011;12613;47.408;8.412;2023-07-28T03:51:48;9.63;;;4.80;;
24429;SDS011;12613;47.408;8.412;2023-07-28T03:54:14;6.20;;;5.05;;
24429;SDS011;12613;47.408;8.412;2023-07-28T03:56:39;7.95;;;4.82;;
24429;SDS011;12613;47.408;8.412;2023-07-28T03:59:05;8.18;;;5.03;;
24429;SDS011;12613;47.408;8.412;2023-07-28T04:01:30;12.43;;;5.82;;
24429;SDS011;12613;47.408;8.412;2023-07-28T04:03:56;8.63;;;4.25;;
24429;SDS011;12613;47.408;8.412;2023-07-28T04:06:38;7.93;;;5.28;;
24429;SDS011;12613;47.408;8.412;2023-07-28T04:09:06;4.57;;;3.83;;
24429;SDS011;12613;47.408;8.412;2023-07-28T04:11:32;6.53;;;3.85;;
24429;SDS011;12613;47.408;8.412;2023-07-28T04:13:58;9.48;;;4.35;;
24429;SDS011;12613;47.408;8.412;2023-07-28T04:16:24;5.65;;;3.35;;
24429;SDS011;12613;47.408;8.412;2023-07-28T04:18:50;5.15;;;3.95;;
24429;SDS011;12613;47.408;8.412;2023-07-28T04:21:15;6.72;;;4.18;;
24429;SDS011;12613;47.408;8.412;2023-07-28T04:23:41;6.22;;;4.15;;
24429;SDS011;12613;47.408;8.412;2023-07-28T04:26:06;5.70;;;3.53;;
24429;SDS011;12613;47.408;8.412;2023-07-28T04:28:32;8.40;;;4.20;;
24429;SDS011;12613;47.408;8.412;2023-07-28T04:30:58;7.32;;;4.18;;
24429;SDS011;12613;47.408;8.412;2023-07-28T04:33:23;8.30;;;4.55;;
24429;SDS011;12613;47.408;8.412;2023-07-28T04:35:49;8.20;;;4.82;;
24429;SDS011;12613;47.408;8.412;2023-07-28T04:38:15;5.88;;;4.43;;
24429;SDS011;12613;47.408;8.412;2023-07-28T04:40:42;7.38;;;4.43;;
24429;SDS011;12613;47.408;8.412;2023-07-28T04:43:07;5.72;;;4.18;;
24429;SDS011;12613;47.408;8.412;2023-07-28T04:45:33;7.47;;;4.32;;
24429;SDS011;12613;47.408;8.412;2023-07-28T04:47:59;8.43;;;4.45;;
24429;SDS011;12613;47.408;8.412;2023-07-28T04:50:24;9.88;;;4.57;;
24429;SDS011;12613;47.408;8.412;2023-07-28T04:52:50;11.77;;;4.95;;
24429;SDS011;12613;47.408;8.412;2023-07-28T04:55:15;11.75;;;5.10;;
24429;SDS011;12613;47.408;8.412;2023-07-28T04:57:41;10.88;;;5.22;;
24429;SDS011;12613;47.408;8.412;2023-07-28T05:00:07;12.43;;;5.20;;
24429;SDS011;12613;47.408;8.412;2023-07-28T05:02:33;15.20;;;5.18;;
24429;SDS011;12613;47.408;8.412;2023-07-28T05:04:59;18.20;;;6.15;;
24429;SDS011;12613;47.408;8.412;2023-07-28T05:07:25;8.15;;;4.72;;
24429;SDS011;12613;47.408;8.412;2023-07-28T05:09:50;14.65;;;4.85;;
24429;SDS011;12613;47.408;8.412;2023-07-28T05:12:16;10.85;;;4.30;;
24429;SDS011;12613;47.408;8.412;2023-07-28T05:14:41;16.58;;;5.93;;
24429;SDS011;12613;47.408;8.412;2023-07-28T05:17:07;18.70;;;4.95;;
24429;SDS011;12613;47.408;8.412;2023-07-28T05:19:33;9.90;;;4.45;;
24429;SDS011;12613;47.408;8.412;2023-07-28T05:21:59;10.02;;;3.92;;
24429;SDS011;12613;47.408;8.412;2023-07-28T05:24:24;9.32;;;4.57;;
24429;SDS011;12613;47.408;8.412;2023-07-28T05:26:50;8.45;;;4.50;;
24429;SDS011;12613;47.408;8.412;2023-07-28T05:29:16;8.10;;;4.43;;
24429;SDS011;12613;47.408;8.412;2023-07-28T05:31:42;8.57;;;4.60;;
24429;SDS011;12613;47.408;8.412;2023-07-28T05:34:07;5.45;;;4.53;;
24429;SDS011;12613;47.408;8.412;2023-07-28T05:36:33;6.53;;;4.60;;
24429;SDS011;12613;47.408;8.412;2023-07-28T05:38:58;6.15;;;3.80;;
24429;SDS011;12613;47.408;8.412;2023-07-28T05:41:24;8.23;;;4.82;;
24429;SDS011;12613;47.408;8.412;2023-07-28T05:43:51;10.40;;;4.32;;
24429;SDS011;12613;47.408;8.412;2023-07-28T05:46:17;11.90;;;4.93;;
24429;SDS011;12613;47.408;8.412;2023-07-28T05:48:43;16.75;;;4.30;;
24429;SDS011;12613;47.408;8.412;2023-07-28T05:51:09;7.32;;;3.95;;
24429;SDS011;12613;47.408;8.412;2023-07-28T05:53:34;7.47;;;3.60;;
24429;SDS011;12613;47.408;8.412;2023-07-28T05:56:00;4.97;;;3.47;;
24429;SDS011;12613;47.408;8.412;2023-07-28T05:58:26;6.57;;;3.92;;
24429;SDS011;12613;47.408;8.412;2023-07-28T06:00:51;8.02;;;3.70;;
24429;SDS011;12613;47.408;8.412;2023-07-28T06:03:17;6.10;;;3.85;;
24429;SDS011;12613;47.408;8.412;2023-07-28T06:05:42;6.90;;;3.63;;
24429;SDS011;12613;47.408;8.412;2023-07-28T06:08:08;9.05;;;4.22;;
24429;SDS011;12613;47.408;8.412;2023-07-28T06:10:34;7.75;;;3.83;;
24429;SDS011;12613;47.408;8.412;2023-07-28T06:13:00;5.70;;;4.40;;
24429;SDS011;12613;47.408;8.412;2023-07-28T06:15:26;15.65;;;4.18;;
24429;SDS011;12613;47.408;8.412;2023-07-28T06:17:51;12.38;;;4.18;;
24429;SDS011;12613;47.408;8.412;2023-07-28T06:20:17;8.80;;;3.90;;
24429;SDS011;12613;47.408;8.412;2023-07-28T06:22:43;17.75;;;4.35;;
24429;SDS011;12613;47.408;8.412;2023-07-28T06:25:08;5.70;;;3.28;;
24429;SDS011;12613;47.408;8.412;2023-07-28T06:27:34;6.15;;;3.88;;
24429;SDS011;12613;47.408;8.412;2023-07-28T06:30:00;5.47;;;3.13;;
24429;SDS011;12613;47.408;8.412;2023-07-28T06:32:26;6.90;;;3.10;;
24429;SDS011;12613;47.408;8.412;2023-07-28T06:34:53;6.30;;;4.10;;
24429;SDS011;12613;47.408;8.412;2023-07-28T06:37:19;3.20;;;2.80;;
24429;SDS011;12613;47.408;8.412;2023-07-28T06:39:44;4.47;;;3.60;;
24429;SDS011;12613;47.408;8.412;2023-07-28T06:42:10;8.13;;;3.63;;
24429;SDS011;12613;47.408;8.412;2023-07-28T06:44:36;7.05;;;3.55;;
24429;SDS011;12613;47.408;8.412;2023-07-28T06:47:02;6.22;;;3.50;;
24429;SDS011;12613;47.408;8.412;2023-07-28T06:49:28;6.75;;;3.55;;
24429;SDS011;12613;47.408;8.412;2023-07-28T06:51:54;9.05;;;4.82;;
24429;SDS011;12613;47.408;8.412;2023-07-28T06:54:20;7.95;;;3.00;;
24429;SDS011;12613;47.408;8.412;2023-07-28T06:56:45;4.43;;;3.58;;
24429;SDS011;12613;47.408;8.412;2023-07-28T06:59:11;8.05;;;3.33;;
24429;SDS011;12613;47.408;8.412;2023-07-28T07:01:37;6.50;;;2.63;;
24429;SDS011;12613;47.408;8.412;2023-07-28T07:04:02;6.47;;;2.95;;
24429;SDS011;12613;47.408;8.412;2023-07-28T07:06:30;3.55;;;2.70;;
24429;SDS011;12613;47.408;8.412;2023-07-28T07:08:56;5.65;;;3.03;;
24429;SDS011;12613;47.408;8.412;2023-07-28T07:11:22;4.47;;;2.53;;
24429;SDS011;12613;47.408;8.412;2023-07-28T07:13:48;3.45;;;2.30;;
24429;SDS011;12613;47.408;8.412;2023-07-28T07:16:14;4.53;;;2.20;;
24429;SDS011;12613;47.408;8.412;2023-07-28T07:18:41;3.85;;;2.88;;
24429;SDS011;12613;47.408;8.412;2023-07-28T07:21:10;4.53;;;2.42;;
24429;SDS011;12613;47.408;8.412;2023-07-28T07:23:36;3.20;;;2.00;;
24429;SDS011;12613;47.408;8.412;2023-07-28T07:26:02;4.75;;;2.45;;
24429;SDS011;12613;47.408;8.412;2023-07-28T07:28:28;4.78;;;2.45;;
24429;SDS011;12613;47.408;8.412;2023-07-28T07:30:57;2.88;;;2.28;;
24429;SDS011;12613;47.408;8.412;2023-07-28T07:33:23;3.10;;;2.15;;
24429;SDS011;12613;47.408;8.412;2023-07-28T07:35:49;2.60;;;2.15;;
24429;SDS011;12613;47.408;8.412;2023-07-28T07:38:15;5.25;;;2.40;;
24429;SDS011;12613;47.408;8.412;2023-07-28T07:40:40;4.95;;;2.50;;
24429;SDS011;12613;47.408;8.412;2023-07-28T07:43:06;3.65;;;2.28;;
24429;SDS011;12613;47.408;8.412;2023-07-28T07:45:32;3.05;;;2.08;;
24429;SDS011;12613;47.408;8.412;2023-07-28T07:48:01;3.08;;;2.20;;
24429;SDS011;12613;47.408;8.412;2023-07-28T07:50:28;5.20;;;2.88;;
24429;SDS011;12613;47.408;8.412;2023-07-28T07:52:54;2.65;;;2.17;;
24429;SDS011;12613;47.408;8.412;2023-07-28T07:55:20;3.85;;;2.33;;
24429;SDS011;12613;47.408;8.412;2023-07-28T07:57:45;5.25;;;2.38;;
24429;SDS011;12613;47.408;8.412;2023-07-28T08:00:11;4.78;;;2.40;;
24429;SDS011;12613;47.408;8.412;2023-07-28T08:02:38;4.57;;;2.47;;
24429;SDS011;12613;47.408;8.412;2023-07-28T08:05:04;3.03;;;2.60;;
24429;SDS011;12613;47.408;8.412;2023-07-28T08:07:30;3.78;;;2.38;;
24429;SDS011;12613;47.408;8.412;2023-07-28T08:09:55;3.72;;;2.60;;
24429;SDS011;12613;47.408;8.412;2023-07-28T08:12:21;2.88;;;2.50;;
24429;SDS011;12613;47.408;8.412;2023-07-28T08:14:47;2.78;;;2.17;;
24429;SDS011;12613;47.408;8.412;2023-07-28T08:17:12;2.70;;;2.20;;
24429;SDS011;12613;47.408;8.412;2023-07-28T08:19:38;3.58;;;2.30;;
24429;SDS011;12613;47.408;8.412;2023-07-28T08:22:04;6.28;;;2.58;;
24429;SDS011;12613;47.408;8.412;2023-07-28T08:24:30;5.70;;;2.80;;
24429;SDS011;12613;47.408;8.412;2023-07-28T08:26:56;2.75;;;2.45;;
24429;SDS011;12613;47.408;8.412;2023-07-28T08:29:22;2.53;;;2.10;;
24429;SDS011;12613;47.408;8.412;2023-07-28T08:31:48;5.35;;;2.03;;
24429;SDS011;12613;47.408;8.412;2023-07-28T08:34:13;3.60;;;2.58;;
24429;SDS011;12613;47.408;8.412;2023-07-28T08:36:40;2.20;;;2.00;;
24429;SDS011;12613;47.408;8.412;2023-07-28T08:39:06;2.75;;;2.47;;
24429;SDS011;12613;47.408;8.412;2023-07-28T08:41:32;5.13;;;2.53;;
24429;SDS011;12613;47.408;8.412;2023-07-28T08:43:57;2.22;;;1.88;;
24429;SDS011;12613;47.408;8.412;2023-07-28T08:46:23;2.72;;;2.42;;
24429;SDS011;12613;47.408;8.412;2023-07-28T08:48:49;4.20;;;2.40;;
24429;SDS011;12613;47.408;8.412;2023-07-28T08:51:14;4.25;;;2.42;;
24429;SDS011;12613;47.408;8.412;2023-07-28T08:53:40;4.35;;;2.88;;
24429;SDS011;12613;47.408;8.412;2023-07-28T08:56:06;4.70;;;2.63;;
24429;SDS011;12613;47.408;8.412;2023-07-28T08:58:32;3.75;;;2.70;;
24429;SDS011;12613;47.408;8.412;2023-07-28T09:00:58;2.47;;;2.25;;
24429;SDS011;12613;47.408;8.412;2023-07-28T09:03:27;7.38;;;2.40;;
24429;SDS011;12613;47.408;8.412;2023-07-28T09:06:00;6.45;;;3.28;;
24429;SDS011;12613;47.408;8.412;2023-07-28T09:08:27;3.80;;;2.53;;
24429;SDS011;12613;47.408;8.412;2023-07-28T09:10:55;4.38;;;2.50;;
24429;SDS011;12613;47.408;8.412;2023-07-28T09:13:20;3.47;;;2.53;;
24429;SDS011;12613;47.408;8.412;2023-07-28T09:15:46;3.85;;;2.42;;
24429;SDS011;12613;47.408;8.412;2023-07-28T09:18:16;3.13;;;2.42;;
24429;SDS011;12613;47.408;8.412;2023-07-28T09:20:42;3.08;;;2.78;;
24429;SDS011;12613;47.408;8.412;2023-07-28T09:23:09;3.38;;;2.67;;
24429;SDS011;12613;47.408;8.412;2023-07-28T09:25:36;3.47;;;2.50;;
24429;SDS011;12613;47.408;8.412;2023-07-28T09:28:03;5.00;;;2.60;;
24429;SDS011;12613;47.408;8.412;2023-07-28T09:30:42;2.97;;;2.67;;
24429;SDS011;12613;47.408;8.412;2023-07-28T09:33:10;3.03;;;2.70;;
24429;SDS011;12613;47.408;8.412;2023-07-28T09:35:36;5.65;;;2.92;;
24429;SDS011;12613;47.408;8.412;2023-07-28T09:38:15;3.33;;;2.80;;
24429;SDS011;12613;47.408;8.412;2023-07-28T09:40:41;3.60;;;3.05;;
24429;SDS011;12613;47.408;8.412;2023-07-28T09:43:08;3.55;;;2.90;;
24429;SDS011;12613;47.408;8.412;2023-07-28T09:45:35;5.38;;;2.45;;
24429;SDS011;12613;47.408;8.412;2023-07-28T09:48:01;3.20;;;2.53;;
24429;SDS011;12613;47.408;8.412;2023-07-28T09:50:29;3.80;;;2.58;;
24429;SDS011;12613;47.408;8.412;2023-07-28T09:52:58;3.35;;;2.88;;
24429;SDS011;12613;47.408;8.412;2023-07-28T09:55:28;3.22;;;2.70;;
24429;SDS011;12613;47.408;8.412;2023-07-28T09:57:55;5.68;;;3.20;;
24429;SDS011;12613;47.408;8.412;2023-07-28T10:00:23;4.50;;;3.22;;
24429;SDS011;12613;47.408;8.412;2023-07-28T10:02:49;3.65;;;3.10;;
24429;SDS011;12613;47.408;8.412;2023-07-28T10:05:15;4.35;;;2.80;;
24429;SDS011;12613;47.408;8.412;2023-07-28T10:07:42;5.15;;;3.05;;
24429;SDS011;12613;47.408;8.412;2023-07-28T10:10:13;3.92;;;2.78;;
24429;SDS011;12613;47.408;8.412;2023-07-28T10:12:46;3.10;;;2.80;;
24429;SDS011;12613;47.408;8.412;2023-07-28T10:15:17;3.70;;;2.95;;
24429;SDS011;12613;47.408;8.412;2023-07-28T10:17:53;5.85;;;3.28;;
24429;SDS011;12613;47.408;8.412;2023-07-28T10:23:01;3.70;;;2.92;;
24429;SDS011;12613;47.408;8.412;2023-07-28T10:25:36;3.80;;;3.03;;
24429;SDS011;12613;47.408;8.412;2023-07-28T10:28:03;5.63;;;3.20;;
24429;SDS011;12613;47.408;8.412;2023-07-28T10:30:51;3.53;;;3.00;;
24429;SDS011;12613;47.408;8.412;2023-07-28T10:36:13;3.60;;;3.30;;
24429;SDS011;12613;47.408;8.412;2023-07-28T10:38:41;5.00;;;3.60;;
24429;SDS011;12613;47.408;8.412;2023-07-28T10:41:17;2.63;;;2.38;;
24429;SDS011;12613;47.408;8.412;2023-07-28T10:43:44;3.00;;;2.65;;
24429;SDS011;12613;47.408;8.412;2023-07-28T10:46:15;2.80;;;2.50;;
24429;SDS011;12613;47.408;8.412;2023-07-28T10:48:42;3.55;;;2.50;;
24429;SDS011;12613;47.408;8.412;2023-07-28T10:51:20;3.90;;;2.78;;
24429;SDS011;12613;47.408;8.412;2023-07-28T10:53:49;5.57;;;2.70;;
24429;SDS011;12613;47.408;8.412;2023-07-28T10:56:22;3.42;;;2.72;;
24429;SDS011;12613;47.408;8.412;2023-07-28T11:04:10;4.22;;;2.58;;
24429;SDS011;12613;47.408;8.412;2023-07-28T11:06:41;5.68;;;2.78;;
24429;SDS011;12613;47.408;8.412;2023-07-28T11:09:08;3.65;;;3.00;;
24429;SDS011;12613;47.408;8.412;2023-07-28T11:11:35;4.53;;;2.50;;
24429;SDS011;12613;47.408;8.412;2023-07-28T11:14:03;5.80;;;3.20;;
24429;SDS011;12613;47.408;8.412;2023-07-28T11:16:32;3.38;;;3.08;;
24429;SDS011;12613;47.408;8.412;2023-07-28T11:19:02;4.20;;;3.10;;
24429;SDS011;12613;47.408;8.412;2023-07-28T11:21:31;2.97;;;2.60;;
24429;SDS011;12613;47.408;8.412;2023-07-28T11:24:02;3.88;;;2.80;;
24429;SDS011;12613;47.408;8.412;2023-07-28T11:26:29;3.72;;;3.13;;
24429;SDS011;12613;47.408;8.412;2023-07-28T11:28:55;3.83;;;3.10;;
24429;SDS011;12613;47.408;8.412;2023-07-28T11:31:24;3.45;;;2.78;;
24429;SDS011;12613;47.408;8.412;2023-07-28T11:33:51;6.75;;;3.22;;
24429;SDS011;12613;47.408;8.412;2023-07-28T11:36:27;4.05;;;3.17;;
24429;SDS011;12613;47.408;8.412;2023-07-28T11:38:55;3.20;;;2.70;;
24429;SDS011;12613;47.408;8.412;2023-07-28T11:41:23;4.03;;;2.63;;
24429;SDS011;12613;47.408;8.412;2023-07-28T11:43:50;3.33;;;2.63;;
24429;SDS011;12613;47.408;8.412;2023-07-28T11:46:50;3.35;;;3.00;;
24429;SDS011;12613;47.408;8.412;2023-07-28T11:49:18;7.70;;;3.05;;
24429;SDS011;12613;47.408;8.412;2023-07-28T11:51:48;4.88;;;2.90;;
24429;SDS011;12613;47.408;8.412;2023-07-28T11:54:17;5.53;;;2.88;;
24429;SDS011;12613;47.408;8.412;2023-07-28T11:56:47;2.88;;;2.50;;
24429;SDS011;12613;47.408;8.412;2023-07-28T11:59:15;4.05;;;3.03;;
24429;SDS011;12613;47.408;8.412;2023-07-28T12:04:21;4.82;;;2.75;;
24429;SDS011;12613;47.408;8.412;2023-07-28T12:07:01;10.80;;;3.08;;
24429;SDS011;12613;47.408;8.412;2023-07-28T12:09:28;3.95;;;2.90;;
24429;SDS011;12613;47.408;8.412;2023-07-28T12:11:54;3.42;;;2.53;;
24429;SDS011;12613;47.408;8.412;2023-07-28T12:14:35;3.90;;;2.80;;
24429;SDS011;12613;47.408;8.412;2023-07-28T12:17:00;3.70;;;3.30;;
24429;SDS011;12613;47.408;8.412;2023-07-28T12:19:29;5.10;;;2.70;;
24429;SDS011;12613;47.408;8.412;2023-07-28T12:21:54;3.83;;;2.63;;
24429;SDS011;12613;47.408;8.412;2023-07-28T12:24:20;3.05;;;2.55;;
24429;SDS011;12613;47.408;8.412;2023-07-28T12:26:46;3.53;;;3.00;;
24429;SDS011;12613;47.408;8.412;2023-07-28T12:29:13;4.45;;;2.80;;
24429;SDS011;12613;47.408;8.412;2023-07-28T12:31:39;3.35;;;2.60;;
24429;SDS011;12613;47.408;8.412;2023-07-28T12:34:04;2.70;;;2.50;;
24429;SDS011;12613;47.408;8.412;2023-07-28T12:36:30;3.38;;;2.60;;
24429;SDS011;12613;47.408;8.412;2023-07-28T12:38:56;3.47;;;2.47;;
24429;SDS011;12613;47.408;8.412;2023-07-28T12:41:22;3.35;;;2.55;;
24429;SDS011;12613;47.408;8.412;2023-07-28T12:43:47;4.75;;;2.53;;
24429;SDS011;12613;47.408;8.412;2023-07-28T12:46:13;3.65;;;2.70;;
24429;SDS011;12613;47.408;8.412;2023-07-28T12:48:38;3.90;;;2.58;;
24429;SDS011;12613;47.408;8.412;2023-07-28T12:51:04;4.82;;;3.20;;
24429;SDS011;12613;47.408;8.412;2023-07-28T12:53:30;3.85;;;3.03;;
24429;SDS011;12613;47.408;8.412;2023-07-28T12:55:55;2.90;;;2.53;;
24429;SDS011;12613;47.408;8.412;2023-07-28T12:58:21;3.42;;;2.88;;
24429;SDS011;12613;47.408;8.412;2023-07-28T13:00:47;2.45;;;2.25;;
24429;SDS011;12613;47.408;8.412;2023-07-28T13:03:12;3.97;;;2.63;;
24429;SDS011;12613;47.408;8.412;2023-07-28T13:05:38;3.97;;;2.42;;
24429;SDS011;12613;47.408;8.412;2023-07-28T13:08:03;4.82;;;3.25;;
24429;SDS011;12613;47.408;8.412;2023-07-28T13:10:29;4.70;;;2.90;;
24429;SDS011;12613;47.408;8.412;2023-07-28T13:12:55;2.55;;;2.35;;
24429;SDS011;12613;47.408;8.412;2023-07-28T13:15:20;2.88;;;2.58;;
24429;SDS011;12613;47.408;8.412;2023-07-28T13:17:46;3.58;;;2.70;;
24429;SDS011;12613;47.408;8.412;2023-07-28T13:20:12;3.38;;;2.60;;
24429;SDS011;12613;47.408;8.412;2023-07-28T13:22:37;6.80;;;2.95;;
24429;SDS011;12613;47.408;8.412;2023-07-28T13:25:03;2.72;;;2.40;;
24429;SDS011;12613;47.408;8.412;2023-07-28T13:27:29;3.40;;;2.58;;
24429;SDS011;12613;47.408;8.412;2023-07-28T13:29:54;2.75;;;2.50;;
24429;SDS011;12613;47.408;8.412;2023-07-28T13:32:23;2.42;;;2.22;;
24429;SDS011;12613;47.408;8.412;2023-07-28T13:34:50;4.10;;;3.10;;
24429;SDS011;12613;47.408;8.412;2023-07-28T13:37:17;4.50;;;2.97;;
24429;SDS011;12613;47.408;8.412;2023-07-28T13:39:44;3.45;;;2.92;;
24429;SDS011;12613;47.408;8.412;2023-07-28T13:42:10;4.50;;;2.75;;
24429;SDS011;12613;47.408;8.412;2023-07-28T13:44:37;5.10;;;2.90;;
24429;SDS011;12613;47.408;8.412;2023-07-28T13:47:03;3.35;;;2.45;;
24429;SDS011;12613;47.408;8.412;2023-07-28T13:49:30;4.60;;;2.60;;
24429;SDS011;12613;47.408;8.412;2023-07-28T13:51:56;2.97;;;2.25;;
24429;SDS011;12613;47.408;8.412;2023-07-28T13:54:22;6.10;;;3.05;;
24429;SDS011;12613;47.408;8.412;2023-07-28T13:56:47;4.60;;;3.40;;
24429;SDS011;12613;47.408;8.412;2023-07-28T13:59:13;3.75;;;2.85;;
24429;SDS011;12613;47.408;8.412;2023-07-28T14:01:39;4.35;;;2.72;;
24429;SDS011;12613;47.408;8.412;2023-07-28T14:04:04;3.72;;;3.33;;
24429;SDS011;12613;47.408;8.412;2023-07-28T14:06:30;4.00;;;3.38;;
24429;SDS011;12613;47.408;8.412;2023-07-28T14:08:56;3.25;;;2.95;;
24429;SDS011;12613;47.408;8.412;2023-07-28T14:11:21;4.63;;;3.13;;
24429;SDS011;12613;47.408;8.412;2023-07-28T14:13:47;5.18;;;3.63;;
24429;SDS011;12613;47.408;8.412;2023-07-28T14:16:12;4.03;;;3.22;;
24429;SDS011;12613;47.408;8.412;2023-07-28T14:18:38;4.60;;;3.00;;
24429;SDS011;12613;47.408;8.412;2023-07-28T14:21:05;3.65;;;3.22;;
24429;SDS011;12613;47.408;8.412;2023-07-28T14:23:31;6.25;;;3.28;;
24429;SDS011;12613;47.408;8.412;2023-07-28T14:25:56;5.25;;;3.28;;
24429;SDS011;12613;47.408;8.412;2023-07-28T14:28:22;5.90;;;3.47;;
24429;SDS011;12613;47.408;8.412;2023-07-28T14:30:49;4.13;;;3.72;;
24429;SDS011;12613;47.408;8.412;2023-07-28T14:33:16;4.13;;;3.63;;
24429;SDS011;12613;47.408;8.412;2023-07-28T14:35:43;6.65;;;4.18;;
24429;SDS011;12613;47.408;8.412;2023-07-28T14:38:10;8.40;;;4.30;;
24429;SDS011;12613;47.408;8.412;2023-07-28T14:40:36;9.73;;;5.80;;
24429;SDS011;12613;47.408;8.412;2023-07-28T14:43:02;8.98;;;4.15;;
24429;SDS011;12613;47.408;8.412;2023-07-28T14:45:28;7.55;;;4.28;;
24429;SDS011;12613;47.408;8.412;2023-07-28T14:47:54;8.85;;;4.20;;
24429;SDS011;12613;47.408;8.412;2023-07-28T14:50:20;6.10;;;3.95;;
24429;SDS011;12613;47.408;8.412;2023-07-28T14:52:47;6.03;;;3.58;;
24429;SDS011;12613;47.408;8.412;2023-07-28T14:55:12;6.05;;;3.60;;
24429;SDS011;12613;47.408;8.412;2023-07-28T14:57:38;4.95;;;2.80;;
24429;SDS011;12613;47.408;8.412;2023-07-28T15:00:04;5.63;;;3.00;;
24429;SDS011;12613;47.408;8.412;2023-07-28T15:02:30;5.60;;;3.40;;
24429;SDS011;12613;47.408;8.412;2023-07-28T15:04:57;4.43;;;2.92;;